sensor_id;sensor_type;location;lat;lon;timestamp;P1;durP1;ratioP1;P2;durP2;ratioP2
75220;SDS011;63802;53.232;6.570;2023-04-24T00:00:32;8.18;;;3.92;;
75220;SDS011;63802;53.232;6.570;2023-04-24T00:02:57;8.57;;;4.10;;
75220;SDS011;63802;53.232;6.570;2023-04-24T00:05:23;10.35;;;4.25;;
75220;SDS011;63802;53.232;6.570;2023-04-24T00:07:49;8.85;;;4.22;;
75220;SDS011;63802;53.232;6.570;2023-04-24T00:10:17;14.40;;;5.45;;
75220;SDS011;63802;53.232;6.570;2023-04-24T00:12:43;9.75;;;5.05;;
75220;SDS011;63802;53.232;6.570;2023-04-24T00:15:09;12.25;;;5.68;;
75220;SDS011;63802;53.232;6.570;2023-04-24T00:17:35;13.13;;;6.20;;
75220;SDS011;63802;53.232;6.570;2023-04-24T00:20:00;11.95;;;6.22;;
75220;SDS011;63802;53.232;6.570;2023-04-24T00:22:29;10.82;;;6.03;;
75220;SDS011;63802;53.232;6.570;2023-04-24T00:24:55;9.82;;;5.75;;
75220;SDS011;63802;53.232;6.570;2023-04-24T00:27:22;13.63;;;6.68;;
75220;SDS011;63802;53.232;6.570;2023-04-24T00:29:48;13.27;;;5.72;;
75220;SDS011;63802;53.232;6.570;2023-04-24T00:32:13;12.45;;;5.60;;
75220;SDS011;63802;53.232;6.570;2023-04-24T00:34:39;10.25;;;5.60;;
75220;SDS011;63802;53.232;6.570;2023-04-24T00:37:05;12.65;;;5.10;;
75220;SDS011;63802;53.232;6.570;2023-04-24T00:39:31;10.23;;;4.57;;
75220;SDS011;63802;53.232;6.570;2023-04-24T00:41:57;7.47;;;3.65;;
75220;SDS011;63802;53.232;6.570;2023-04-24T00:44:22;9.13;;;3.92;;
75220;SDS011;63802;53.232;6.570;2023-04-24T00:46:48;5.68;;;2.63;;
75220;SDS011;63802;53.232;6.570;2023-04-24T00:49:19;2.83;;;1.83;;
75220;SDS011;63802;53.232;6.570;2023-04-24T00:51:45;2.15;;;1.70;;
75220;SDS011;63802;53.232;6.570;2023-04-24T00:54:14;2.85;;;1.90;;
75220;SDS011;63802;53.232;6.570;2023-04-24T00:56:40;1.65;;;1.52;;
75220;SDS011;63802;53.232;6.570;2023-04-24T00:59:07;3.05;;;1.80;;
75220;SDS011;63802;53.232;6.570;2023-04-24T01:01:33;2.00;;;1.80;;
75220;SDS011;63802;53.232;6.570;2023-04-24T01:04:00;2.17;;;1.63;;
75220;SDS011;63802;53.232;6.570;2023-04-24T01:06:29;3.13;;;1.80;;
75220;SDS011;63802;53.232;6.570;2023-04-24T01:08:58;2.67;;;1.52;;
75220;SDS011;63802;53.232;6.570;2023-04-24T01:11:25;2.22;;;1.52;;
75220;SDS011;63802;53.232;6.570;2023-04-24T01:13:51;2.30;;;1.63;;
75220;SDS011;63802;53.232;6.570;2023-04-24T01:16:17;2.53;;;1.73;;
75220;SDS011;63802;53.232;6.570;2023-04-24T01:18:45;2.45;;;1.60;;
75220;SDS011;63802;53.232;6.570;2023-04-24T01:21:11;2.78;;;1.67;;
75220;SDS011;63802;53.232;6.570;2023-04-24T01:23:39;2.58;;;1.88;;
75220;SDS011;63802;53.232;6.570;2023-04-24T01:26:05;2.75;;;1.90;;
75220;SDS011;63802;53.232;6.570;2023-04-24T01:28:31;4.38;;;1.88;;
75220;SDS011;63802;53.232;6.570;2023-04-24T01:30:57;2.50;;;2.08;;
75220;SDS011;63802;53.232;6.570;2023-04-24T01:33:23;3.65;;;1.67;;
75220;SDS011;63802;53.232;6.570;2023-04-24T01:35:48;3.35;;;2.10;;
75220;SDS011;63802;53.232;6.570;2023-04-24T01:38:15;4.97;;;1.60;;
75220;SDS011;63802;53.232;6.570;2023-04-24T01:40:40;3.08;;;1.90;;
75220;SDS011;63802;53.232;6.570;2023-04-24T01:43:07;3.58;;;2.20;;
75220;SDS011;63802;53.232;6.570;2023-04-24T01:45:32;3.42;;;2.10;;
75220;SDS011;63802;53.232;6.570;2023-04-24T01:47:58;3.08;;;2.05;;
75220;SDS011;63802;53.232;6.570;2023-04-24T01:50:23;4.05;;;2.20;;
75220;SDS011;63802;53.232;6.570;2023-04-24T01:52:49;5.40;;;2.15;;
75220;SDS011;63802;53.232;6.570;2023-04-24T01:55:15;3.92;;;2.30;;
75220;SDS011;63802;53.232;6.570;2023-04-24T01:57:40;3.72;;;2.47;;
75220;SDS011;63802;53.232;6.570;2023-04-24T02:00:06;3.88;;;2.38;;
75220;SDS011;63802;53.232;6.570;2023-04-24T02:02:32;5.45;;;2.75;;
75220;SDS011;63802;53.232;6.570;2023-04-24T02:04:58;4.75;;;2.88;;
75220;SDS011;63802;53.232;6.570;2023-04-24T02:07:23;3.20;;;2.30;;
75220;SDS011;63802;53.232;6.570;2023-04-24T02:09:49;5.10;;;2.65;;
75220;SDS011;63802;53.232;6.570;2023-04-24T02:12:15;5.63;;;3.30;;
75220;SDS011;63802;53.232;6.570;2023-04-24T02:14:40;5.03;;;2.60;;
75220;SDS011;63802;53.232;6.570;2023-04-24T02:17:07;6.03;;;3.00;;
75220;SDS011;63802;53.232;6.570;2023-04-24T02:19:32;5.45;;;2.97;;
75220;SDS011;63802;53.232;6.570;2023-04-24T02:21:58;6.60;;;3.25;;
75220;SDS011;63802;53.232;6.570;2023-04-24T02:24:23;6.43;;;3.45;;
75220;SDS011;63802;53.232;6.570;2023-04-24T02:26:48;6.47;;;3.42;;
75220;SDS011;63802;53.232;6.570;2023-04-24T02:29:14;7.07;;;3.72;;
75220;SDS011;63802;53.232;6.570;2023-04-24T02:31:40;7.25;;;3.83;;
75220;SDS011;63802;53.232;6.570;2023-04-24T02:34:05;7.97;;;4.22;;
75220;SDS011;63802;53.232;6.570;2023-04-24T02:36:31;9.20;;;3.90;;
75220;SDS011;63802;53.232;6.570;2023-04-24T02:38:56;7.80;;;3.78;;
75220;SDS011;63802;53.232;6.570;2023-04-24T02:41:22;9.38;;;4.13;;
75220;SDS011;63802;53.232;6.570;2023-04-24T02:43:47;10.82;;;4.07;;
75220;SDS011;63802;53.232;6.570;2023-04-24T02:46:13;8.90;;;4.22;;
75220;SDS011;63802;53.232;6.570;2023-04-24T02:48:39;7.90;;;4.03;;
75220;SDS011;63802;53.232;6.570;2023-04-24T02:51:05;10.55;;;4.50;;
75220;SDS011;63802;53.232;6.570;2023-04-24T02:53:31;9.55;;;4.90;;
75220;SDS011;63802;53.232;6.570;2023-04-24T02:56:00;9.75;;;4.72;;
75220;SDS011;63802;53.232;6.570;2023-04-24T02:58:26;10.07;;;5.30;;
75220;SDS011;63802;53.232;6.570;2023-04-24T03:00:53;9.57;;;4.60;;
75220;SDS011;63802;53.232;6.570;2023-04-24T03:03:19;9.73;;;4.72;;
75220;SDS011;63802;53.232;6.570;2023-04-24T03:05:45;9.43;;;4.35;;
75220;SDS011;63802;53.232;6.570;2023-04-24T03:08:10;10.50;;;4.82;;
75220;SDS011;63802;53.232;6.570;2023-04-24T03:10:36;10.82;;;5.18;;
75220;SDS011;63802;53.232;6.570;2023-04-24T03:13:01;10.43;;;4.97;;
75220;SDS011;63802;53.232;6.570;2023-04-24T03:15:27;11.95;;;4.95;;
75220;SDS011;63802;53.232;6.570;2023-04-24T03:17:52;12.38;;;5.60;;
75220;SDS011;63802;53.232;6.570;2023-04-24T03:20:18;12.13;;;5.28;;
75220;SDS011;63802;53.232;6.570;2023-04-24T03:22:43;12.45;;;5.15;;
75220;SDS011;63802;53.232;6.570;2023-04-24T03:25:09;11.50;;;5.43;;
75220;SDS011;63802;53.232;6.570;2023-04-24T03:27:34;10.93;;;5.10;;
75220;SDS011;63802;53.232;6.570;2023-04-24T03:30:00;12.40;;;5.55;;
75220;SDS011;63802;53.232;6.570;2023-04-24T03:32:26;14.13;;;5.90;;
75220;SDS011;63802;53.232;6.570;2023-04-24T03:34:52;10.85;;;5.72;;
75220;SDS011;63802;53.232;6.570;2023-04-24T03:37:18;12.05;;;5.40;;
75220;SDS011;63802;53.232;6.570;2023-04-24T03:39:43;14.13;;;6.03;;
75220;SDS011;63802;53.232;6.570;2023-04-24T03:42:09;13.10;;;5.72;;
75220;SDS011;63802;53.232;6.570;2023-04-24T03:44:37;16.35;;;7.38;;
75220;SDS011;63802;53.232;6.570;2023-04-24T03:47:02;14.23;;;6.65;;
75220;SDS011;63802;53.232;6.570;2023-04-24T03:49:28;18.25;;;7.95;;
75220;SDS011;63802;53.232;6.570;2023-04-24T03:51:53;15.55;;;7.40;;
75220;SDS011;63802;53.232;6.570;2023-04-24T03:54:19;16.88;;;8.10;;
75220;SDS011;63802;53.232;6.570;2023-04-24T03:56:44;18.73;;;9.13;;
75220;SDS011;63802;53.232;6.570;2023-04-24T03:59:10;17.33;;;8.27;;
75220;SDS011;63802;53.232;6.570;2023-04-24T04:01:35;19.38;;;9.77;;
75220;SDS011;63802;53.232;6.570;2023-04-24T04:04:02;20.70;;;10.25;;
75220;SDS011;63802;53.232;6.570;2023-04-24T04:06:28;19.85;;;10.30;;
75220;SDS011;63802;53.232;6.570;2023-04-24T04:08:55;21.48;;;10.13;;
75220;SDS011;63802;53.232;6.570;2023-04-24T04:11:21;19.50;;;10.18;;
75220;SDS011;63802;53.232;6.570;2023-04-24T04:13:46;20.67;;;10.73;;
75220;SDS011;63802;53.232;6.570;2023-04-24T04:16:13;20.90;;;9.75;;
75220;SDS011;63802;53.232;6.570;2023-04-24T04:18:39;21.02;;;10.10;;
75220;SDS011;63802;53.232;6.570;2023-04-24T04:21:04;19.98;;;10.02;;
75220;SDS011;63802;53.232;6.570;2023-04-24T04:23:30;20.00;;;10.13;;
75220;SDS011;63802;53.232;6.570;2023-04-24T04:25:56;20.08;;;10.27;;
75220;SDS011;63802;53.232;6.570;2023-04-24T04:28:22;20.75;;;9.30;;
75220;SDS011;63802;53.232;6.570;2023-04-24T04:30:49;20.45;;;9.30;;
75220;SDS011;63802;53.232;6.570;2023-04-24T04:33:18;16.10;;;8.98;;
75220;SDS011;63802;53.232;6.570;2023-04-24T04:35:47;17.60;;;10.05;;
75220;SDS011;63802;53.232;6.570;2023-04-24T04:38:21;17.50;;;9.13;;
75220;SDS011;63802;53.232;6.570;2023-04-24T04:40:47;16.00;;;8.45;;
75220;SDS011;63802;53.232;6.570;2023-04-24T04:43:13;16.92;;;8.57;;
75220;SDS011;63802;53.232;6.570;2023-04-24T04:45:39;17.50;;;9.35;;
75220;SDS011;63802;53.232;6.570;2023-04-24T04:48:06;19.08;;;9.27;;
75220;SDS011;63802;53.232;6.570;2023-04-24T04:50:37;16.80;;;8.65;;
75220;SDS011;63802;53.232;6.570;2023-04-24T04:53:03;15.70;;;8.00;;
75220;SDS011;63802;53.232;6.570;2023-04-24T04:55:28;17.23;;;8.52;;
75220;SDS011;63802;53.232;6.570;2023-04-24T04:57:54;19.00;;;8.23;;
75220;SDS011;63802;53.232;6.570;2023-04-24T05:00:21;16.02;;;7.53;;
75220;SDS011;63802;53.232;6.570;2023-04-24T05:02:46;13.45;;;6.82;;
75220;SDS011;63802;53.232;6.570;2023-04-24T05:05:11;11.77;;;6.00;;
75220;SDS011;63802;53.232;6.570;2023-04-24T05:07:37;10.38;;;4.97;;
75220;SDS011;63802;53.232;6.570;2023-04-24T05:10:02;9.48;;;4.53;;
75220;SDS011;63802;53.232;6.570;2023-04-24T05:12:28;11.80;;;5.55;;
75220;SDS011;63802;53.232;6.570;2023-04-24T05:14:53;8.10;;;4.05;;
75220;SDS011;63802;53.232;6.570;2023-04-24T05:17:21;9.02;;;4.25;;
75220;SDS011;63802;53.232;6.570;2023-04-24T05:19:47;11.60;;;5.25;;
75220;SDS011;63802;53.232;6.570;2023-04-24T05:22:13;11.48;;;4.75;;
75220;SDS011;63802;53.232;6.570;2023-04-24T05:24:38;8.90;;;3.97;;
75220;SDS011;63802;53.232;6.570;2023-04-24T05:27:03;9.70;;;4.25;;
75220;SDS011;63802;53.232;6.570;2023-04-24T05:29:32;9.00;;;4.22;;
75220;SDS011;63802;53.232;6.570;2023-04-24T05:31:58;10.00;;;4.68;;
75220;SDS011;63802;53.232;6.570;2023-04-24T05:34:24;8.40;;;4.22;;
75220;SDS011;63802;53.232;6.570;2023-04-24T05:36:49;12.07;;;5.38;;
75220;SDS011;63802;53.232;6.570;2023-04-24T05:39:15;9.57;;;3.60;;
75220;SDS011;63802;53.232;6.570;2023-04-24T05:41:41;10.85;;;4.47;;
75220;SDS011;63802;53.232;6.570;2023-04-24T05:44:07;8.55;;;3.92;;
75220;SDS011;63802;53.232;6.570;2023-04-24T05:46:32;8.82;;;3.97;;
75220;SDS011;63802;53.232;6.570;2023-04-24T05:48:58;9.63;;;3.53;;
75220;SDS011;63802;53.232;6.570;2023-04-24T05:51:24;10.50;;;4.43;;
75220;SDS011;63802;53.232;6.570;2023-04-24T05:53:49;7.97;;;3.58;;
75220;SDS011;63802;53.232;6.570;2023-04-24T05:56:15;8.85;;;3.85;;
75220;SDS011;63802;53.232;6.570;2023-04-24T05:58:40;8.45;;;3.50;;
75220;SDS011;63802;53.232;6.570;2023-04-24T06:01:06;10.77;;;4.70;;
75220;SDS011;63802;53.232;6.570;2023-04-24T06:03:31;9.60;;;4.50;;
75220;SDS011;63802;53.232;6.570;2023-04-24T06:05:57;7.20;;;4.13;;
75220;SDS011;63802;53.232;6.570;2023-04-24T06:08:23;11.13;;;4.53;;
75220;SDS011;63802;53.232;6.570;2023-04-24T06:10:48;9.98;;;3.88;;
75220;SDS011;63802;53.232;6.570;2023-04-24T06:13:14;10.80;;;4.45;;
75220;SDS011;63802;53.232;6.570;2023-04-24T06:15:40;9.70;;;4.68;;
75220;SDS011;63802;53.232;6.570;2023-04-24T06:18:05;10.02;;;4.30;;
75220;SDS011;63802;53.232;6.570;2023-04-24T06:20:35;9.80;;;4.32;;
75220;SDS011;63802;53.232;6.570;2023-04-24T06:23:01;10.90;;;4.57;;
75220;SDS011;63802;53.232;6.570;2023-04-24T06:25:26;10.00;;;4.68;;
75220;SDS011;63802;53.232;6.570;2023-04-24T06:27:52;12.50;;;5.25;;
75220;SDS011;63802;53.232;6.570;2023-04-24T06:30:21;10.30;;;5.47;;
75220;SDS011;63802;53.232;6.570;2023-04-24T06:32:47;11.02;;;5.70;;
75220;SDS011;63802;53.232;6.570;2023-04-24T06:35:12;12.18;;;6.47;;
75220;SDS011;63802;53.232;6.570;2023-04-24T06:37:41;12.38;;;5.63;;
75220;SDS011;63802;53.232;6.570;2023-04-24T06:40:07;11.63;;;5.63;;
75220;SDS011;63802;53.232;6.570;2023-04-24T06:42:33;13.85;;;5.78;;
75220;SDS011;63802;53.232;6.570;2023-04-24T06:45:00;11.93;;;5.38;;
75220;SDS011;63802;53.232;6.570;2023-04-24T06:47:25;13.73;;;5.45;;
75220;SDS011;63802;53.232;6.570;2023-04-24T06:49:51;12.30;;;5.30;;
75220;SDS011;63802;53.232;6.570;2023-04-24T06:52:17;11.77;;;5.25;;
75220;SDS011;63802;53.232;6.570;2023-04-24T06:54:43;13.93;;;4.72;;
75220;SDS011;63802;53.232;6.570;2023-04-24T06:57:09;7.88;;;3.70;;
75220;SDS011;63802;53.232;6.570;2023-04-24T06:59:35;7.53;;;3.50;;
75220;SDS011;63802;53.232;6.570;2023-04-24T07:02:01;7.03;;;2.97;;
75220;SDS011;63802;53.232;6.570;2023-04-24T07:04:26;10.45;;;3.05;;
75220;SDS011;63802;53.232;6.570;2023-04-24T07:06:53;6.35;;;3.25;;
75220;SDS011;63802;53.232;6.570;2023-04-24T07:09:23;6.20;;;3.10;;
75220;SDS011;63802;53.232;6.570;2023-04-24T07:11:50;5.70;;;2.78;;
75220;SDS011;63802;53.232;6.570;2023-04-24T07:14:16;5.10;;;2.58;;
75220;SDS011;63802;53.232;6.570;2023-04-24T07:16:42;6.45;;;2.42;;
75220;SDS011;63802;53.232;6.570;2023-04-24T07:19:08;6.32;;;2.70;;
75220;SDS011;63802;53.232;6.570;2023-04-24T07:21:34;5.15;;;2.45;;
75220;SDS011;63802;53.232;6.570;2023-04-24T07:23:59;4.65;;;2.65;;
75220;SDS011;63802;53.232;6.570;2023-04-24T07:26:25;4.00;;;2.25;;
75220;SDS011;63802;53.232;6.570;2023-04-24T07:28:52;6.00;;;2.58;;
75220;SDS011;63802;53.232;6.570;2023-04-24T07:31:18;4.40;;;2.63;;
75220;SDS011;63802;53.232;6.570;2023-04-24T07:33:43;8.70;;;3.40;;
75220;SDS011;63802;53.232;6.570;2023-04-24T07:36:08;3.83;;;2.72;;
75220;SDS011;63802;53.232;6.570;2023-04-24T07:38:40;8.50;;;3.47;;
75220;SDS011;63802;53.232;6.570;2023-04-24T07:41:06;7.32;;;3.63;;
75220;SDS011;63802;53.232;6.570;2023-04-24T07:43:32;6.95;;;3.45;;
75220;SDS011;63802;53.232;6.570;2023-04-24T07:45:57;7.15;;;3.70;;
75220;SDS011;63802;53.232;6.570;2023-04-24T07:48:23;7.30;;;2.97;;
75220;SDS011;63802;53.232;6.570;2023-04-24T07:50:50;9.57;;;3.25;;
75220;SDS011;63802;53.232;6.570;2023-04-24T07:53:15;7.55;;;2.97;;
75220;SDS011;63802;53.232;6.570;2023-04-24T07:55:41;6.30;;;2.70;;
75220;SDS011;63802;53.232;6.570;2023-04-24T07:58:06;7.22;;;3.30;;
75220;SDS011;63802;53.232;6.570;2023-04-24T08:00:31;9.30;;;3.67;;
75220;SDS011;63802;53.232;6.570;2023-04-24T08:02:58;9.27;;;4.45;;
75220;SDS011;63802;53.232;6.570;2023-04-24T08:05:23;12.00;;;4.93;;
75220;SDS011;63802;53.232;6.570;2023-04-24T08:07:52;12.13;;;5.70;;
75220;SDS011;63802;53.232;6.570;2023-04-24T08:10:17;15.68;;;6.10;;
75220;SDS011;63802;53.232;6.570;2023-04-24T08:12:43;15.90;;;6.55;;
75220;SDS011;63802;53.232;6.570;2023-04-24T08:15:09;17.75;;;8.13;;
75220;SDS011;63802;53.232;6.570;2023-04-24T08:17:35;18.08;;;7.97;;
75220;SDS011;63802;53.232;6.570;2023-04-24T08:20:01;20.23;;;8.00;;
75220;SDS011;63802;53.232;6.570;2023-04-24T08:22:27;17.23;;;7.93;;
75220;SDS011;63802;53.232;6.570;2023-04-24T08:24:53;22.30;;;8.38;;
75220;SDS011;63802;53.232;6.570;2023-04-24T08:27:19;22.67;;;8.50;;
75220;SDS011;63802;53.232;6.570;2023-04-24T08:29:44;24.30;;;8.98;;
75220;SDS011;63802;53.232;6.570;2023-04-24T08:32:10;26.20;;;9.13;;
75220;SDS011;63802;53.232;6.570;2023-04-24T08:34:36;24.40;;;8.57;;
75220;SDS011;63802;53.232;6.570;2023-04-24T08:37:02;30.50;;;9.93;;
75220;SDS011;63802;53.232;6.570;2023-04-24T08:39:27;20.63;;;8.90;;
75220;SDS011;63802;53.232;6.570;2023-04-24T08:41:54;19.88;;;9.00;;
75220;SDS011;63802;53.232;6.570;2023-04-24T08:44:20;25.23;;;9.13;;
75220;SDS011;63802;53.232;6.570;2023-04-24T08:46:46;17.30;;;8.10;;
75220;SDS011;63802;53.232;6.570;2023-04-24T08:49:13;20.02;;;8.77;;
75220;SDS011;63802;53.232;6.570;2023-04-24T08:54:09;16.83;;;7.03;;
75220;SDS011;63802;53.232;6.570;2023-04-24T08:56:36;18.52;;;7.85;;
75220;SDS011;63802;53.232;6.570;2023-04-24T08:59:04;15.75;;;6.82;;
75220;SDS011;63802;53.232;6.570;2023-04-24T09:01:31;14.15;;;6.75;;
75220;SDS011;63802;53.232;6.570;2023-04-24T09:03:58;17.45;;;6.97;;
75220;SDS011;63802;53.232;6.570;2023-04-24T09:06:27;19.05;;;7.63;;
75220;SDS011;63802;53.232;6.570;2023-04-24T09:08:53;17.73;;;8.30;;
75220;SDS011;63802;53.232;6.570;2023-04-24T09:11:20;18.17;;;8.27;;
75220;SDS011;63802;53.232;6.570;2023-04-24T09:13:48;20.63;;;8.60;;
75220;SDS011;63802;53.232;6.570;2023-04-24T09:16:14;21.67;;;8.73;;
75220;SDS011;63802;53.232;6.570;2023-04-24T09:18:40;17.50;;;7.93;;
75220;SDS011;63802;53.232;6.570;2023-04-24T09:21:09;17.55;;;7.70;;
75220;SDS011;63802;53.232;6.570;2023-04-24T09:23:35;15.55;;;7.88;;
75220;SDS011;63802;53.232;6.570;2023-04-24T09:26:01;17.67;;;7.72;;
75220;SDS011;63802;53.232;6.570;2023-04-24T09:28:31;16.05;;;6.82;;
75220;SDS011;63802;53.232;6.570;2023-04-24T09:31:14;17.52;;;6.35;;
75220;SDS011;63802;53.232;6.570;2023-04-24T09:36:31;17.00;;;6.28;;
75220;SDS011;63802;53.232;6.570;2023-04-24T09:39:26;11.80;;;5.65;;
75220;SDS011;63802;53.232;6.570;2023-04-24T09:41:54;12.55;;;5.80;;
75220;SDS011;63802;53.232;6.570;2023-04-24T09:44:26;14.07;;;6.10;;
75220;SDS011;63802;53.232;6.570;2023-04-24T09:46:54;18.95;;;6.10;;
75220;SDS011;63802;53.232;6.570;2023-04-24T09:49:30;17.63;;;6.30;;
75220;SDS011;63802;53.232;6.570;2023-04-24T09:54:30;14.43;;;5.57;;
75220;SDS011;63802;53.232;6.570;2023-04-24T09:56:56;14.45;;;5.60;;
75220;SDS011;63802;53.232;6.570;2023-04-24T09:59:21;17.90;;;5.15;;
75220;SDS011;63802;53.232;6.570;2023-04-24T10:01:47;16.58;;;5.07;;
75220;SDS011;63802;53.232;6.570;2023-04-24T10:04:24;13.98;;;4.38;;
75220;SDS011;63802;53.232;6.570;2023-04-24T10:06:51;11.60;;;5.13;;
75220;SDS011;63802;53.232;6.570;2023-04-24T10:09:19;10.85;;;4.97;;
75220;SDS011;63802;53.232;6.570;2023-04-24T10:11:47;10.07;;;4.30;;
75220;SDS011;63802;53.232;6.570;2023-04-24T10:14:17;9.82;;;3.80;;
75220;SDS011;63802;53.232;6.570;2023-04-24T10:16:48;9.02;;;3.00;;
75220;SDS011;63802;53.232;6.570;2023-04-24T10:19:15;7.45;;;3.47;;
75220;SDS011;63802;53.232;6.570;2023-04-24T10:21:41;7.18;;;3.00;;
75220;SDS011;63802;53.232;6.570;2023-04-24T10:24:11;7.78;;;2.90;;
75220;SDS011;63802;53.232;6.570;2023-04-24T10:26:40;8.73;;;2.90;;
75220;SDS011;63802;53.232;6.570;2023-04-24T10:29:06;7.38;;;2.78;;
75220;SDS011;63802;53.232;6.570;2023-04-24T10:31:38;7.35;;;2.90;;
75220;SDS011;63802;53.232;6.570;2023-04-24T10:34:04;6.43;;;3.10;;
75220;SDS011;63802;53.232;6.570;2023-04-24T10:36:31;9.18;;;2.85;;
75220;SDS011;63802;53.232;6.570;2023-04-24T10:38:59;6.47;;;2.90;;
75220;SDS011;63802;53.232;6.570;2023-04-24T10:41:27;6.85;;;3.13;;
75220;SDS011;63802;53.232;6.570;2023-04-24T10:44:08;10.63;;;3.33;;
75220;SDS011;63802;53.232;6.570;2023-04-24T10:46:39;11.25;;;3.13;;
75220;SDS011;63802;53.232;6.570;2023-04-24T10:49:08;8.60;;;2.78;;
75220;SDS011;63802;53.232;6.570;2023-04-24T10:54:25;6.10;;;2.70;;
75220;SDS011;63802;53.232;6.570;2023-04-24T10:59:42;5.88;;;2.38;;
75220;SDS011;63802;53.232;6.570;2023-04-24T11:02:09;8.18;;;2.45;;
75220;SDS011;63802;53.232;6.570;2023-04-24T11:04:34;9.63;;;2.67;;
75220;SDS011;63802;53.232;6.570;2023-04-24T11:07:00;8.27;;;2.45;;
75220;SDS011;63802;53.232;6.570;2023-04-24T11:09:27;8.07;;;2.65;;
75220;SDS011;63802;53.232;6.570;2023-04-24T11:12:07;7.78;;;2.65;;
75220;SDS011;63802;53.232;6.570;2023-04-24T11:17:35;7.43;;;2.72;;
75220;SDS011;63802;53.232;6.570;2023-04-24T11:24:59;7.90;;;1.98;;
75220;SDS011;63802;53.232;6.570;2023-04-24T11:27:27;5.82;;;1.80;;
75220;SDS011;63802;53.232;6.570;2023-04-24T11:30:03;7.90;;;1.92;;
75220;SDS011;63802;53.232;6.570;2023-04-24T11:35:05;6.68;;;2.00;;
75220;SDS011;63802;53.232;6.570;2023-04-24T11:37:47;3.45;;;1.83;;
75220;SDS011;63802;53.232;6.570;2023-04-24T11:40:14;8.63;;;2.22;;
75220;SDS011;63802;53.232;6.570;2023-04-24T11:42:42;9.82;;;2.35;;
75220;SDS011;63802;53.232;6.570;2023-04-24T11:45:13;5.72;;;1.85;;
75220;SDS011;63802;53.232;6.570;2023-04-24T11:47:39;6.30;;;1.83;;
75220;SDS011;63802;53.232;6.570;2023-04-24T11:50:08;7.27;;;1.90;;
75220;SDS011;63802;53.232;6.570;2023-04-24T11:52:39;4.78;;;1.92;;
75220;SDS011;63802;53.232;6.570;2023-04-24T11:57:44;11.02;;;2.08;;
75220;SDS011;63802;53.232;6.570;2023-04-24T12:00:15;5.78;;;2.03;;
75220;SDS011;63802;53.232;6.570;2023-04-24T12:02:41;4.57;;;1.50;;
75220;SDS011;63802;53.232;6.570;2023-04-24T12:05:06;13.68;;;2.10;;
75220;SDS011;63802;53.232;6.570;2023-04-24T12:07:36;5.25;;;2.67;;
75220;SDS011;63802;53.232;6.570;2023-04-24T12:10:10;8.98;;;2.80;;
75220;SDS011;63802;53.232;6.570;2023-04-24T12:12:57;6.22;;;1.70;;
75220;SDS011;63802;53.232;6.570;2023-04-24T12:15:24;6.05;;;1.90;;
75220;SDS011;63802;53.232;6.570;2023-04-24T12:17:50;6.78;;;1.95;;
75220;SDS011;63802;53.232;6.570;2023-04-24T12:20:17;3.90;;;1.88;;
75220;SDS011;63802;53.232;6.570;2023-04-24T12:25:19;4.90;;;1.70;;
75220;SDS011;63802;53.232;6.570;2023-04-24T12:27:46;6.10;;;1.45;;
75220;SDS011;63802;53.232;6.570;2023-04-24T12:30:21;3.42;;;1.48;;
75220;SDS011;63802;53.232;6.570;2023-04-24T12:32:51;7.53;;;1.40;;
75220;SDS011;63802;53.232;6.570;2023-04-24T12:35:20;3.15;;;1.50;;
75220;SDS011;63802;53.232;6.570;2023-04-24T12:37:47;6.00;;;1.42;;
75220;SDS011;63802;53.232;6.570;2023-04-24T12:40:13;4.30;;;1.27;;
75220;SDS011;63802;53.232;6.570;2023-04-24T12:42:43;4.40;;;1.20;;
75220;SDS011;63802;53.232;6.570;2023-04-24T12:45:13;2.53;;;1.20;;
75220;SDS011;63802;53.232;6.570;2023-04-24T12:47:40;1.77;;;1.00;;
75220;SDS011;63802;53.232;6.570;2023-04-24T12:50:10;5.22;;;1.50;;
75220;SDS011;63802;53.232;6.570;2023-04-24T12:52:41;4.65;;;1.40;;
75220;SDS011;63802;53.232;6.570;2023-04-24T12:55:07;7.30;;;1.42;;
75220;SDS011;63802;53.232;6.570;2023-04-24T12:57:33;2.00;;;1.20;;
75220;SDS011;63802;53.232;6.570;2023-04-24T13:00:02;3.95;;;1.40;;
75220;SDS011;63802;53.232;6.570;2023-04-24T13:02:29;3.72;;;1.50;;
75220;SDS011;63802;53.232;6.570;2023-04-24T13:04:56;3.00;;;1.30;;
75220;SDS011;63802;53.232;6.570;2023-04-24T13:07:22;0.95;;;0.88;;
75220;SDS011;63802;53.232;6.570;2023-04-24T13:09:48;3.88;;;1.40;;
75220;SDS011;63802;53.232;6.570;2023-04-24T13:12:15;2.90;;;1.25;;
75220;SDS011;63802;53.232;6.570;2023-04-24T13:14:40;5.40;;;1.33;;
75220;SDS011;63802;53.232;6.570;2023-04-24T13:17:06;5.30;;;1.50;;
75220;SDS011;63802;53.232;6.570;2023-04-24T13:19:39;4.72;;;1.40;;
75220;SDS011;63802;53.232;6.570;2023-04-24T13:22:06;2.28;;;1.10;;
75220;SDS011;63802;53.232;6.570;2023-04-24T13:24:33;4.38;;;1.50;;
75220;SDS011;63802;53.232;6.570;2023-04-24T13:26:59;3.97;;;1.42;;
75220;SDS011;63802;53.232;6.570;2023-04-24T13:29:25;3.88;;;1.08;;
75220;SDS011;63802;53.232;6.570;2023-04-24T13:31:51;3.45;;;1.40;;
75220;SDS011;63802;53.232;6.570;2023-04-24T13:34:17;5.97;;;1.73;;
75220;SDS011;63802;53.232;6.570;2023-04-24T13:36:42;3.22;;;0.98;;
75220;SDS011;63802;53.232;6.570;2023-04-24T13:39:08;11.63;;;1.45;;
75220;SDS011;63802;53.232;6.570;2023-04-24T13:41:34;1.85;;;0.93;;
75220;SDS011;63802;53.232;6.570;2023-04-24T13:44:01;3.88;;;0.82;;
75220;SDS011;63802;53.232;6.570;2023-04-24T13:46:33;3.08;;;0.95;;
75220;SDS011;63802;53.232;6.570;2023-04-24T13:49:04;0.70;;;0.63;;
75220;SDS011;63802;53.232;6.570;2023-04-24T13:51:33;3.30;;;1.35;;
75220;SDS011;63802;53.232;6.570;2023-04-24T13:53:59;3.72;;;1.35;;
75220;SDS011;63802;53.232;6.570;2023-04-24T13:56:25;1.40;;;0.75;;
75220;SDS011;63802;53.232;6.570;2023-04-24T13:58:53;4.45;;;1.02;;
75220;SDS011;63802;53.232;6.570;2023-04-24T14:01:21;3.00;;;0.90;;
75220;SDS011;63802;53.232;6.570;2023-04-24T14:03:49;4.15;;;1.17;;
75220;SDS011;63802;53.232;6.570;2023-04-24T14:06:16;6.22;;;1.65;;
75220;SDS011;63802;53.232;6.570;2023-04-24T14:08:47;5.55;;;1.98;;
75220;SDS011;63802;53.232;6.570;2023-04-24T14:11:13;6.47;;;2.30;;
75220;SDS011;63802;53.232;6.570;2023-04-24T14:13:39;2.78;;;1.50;;
75220;SDS011;63802;53.232;6.570;2023-04-24T14:16:06;3.55;;;1.90;;
75220;SDS011;63802;53.232;6.570;2023-04-24T14:18:31;7.28;;;1.60;;
75220;SDS011;63802;53.232;6.570;2023-04-24T14:20:57;7.95;;;1.90;;
75220;SDS011;63802;53.232;6.570;2023-04-24T14:23:23;7.57;;;2.33;;
75220;SDS011;63802;53.232;6.570;2023-04-24T14:25:48;5.28;;;1.55;;
75220;SDS011;63802;53.232;6.570;2023-04-24T14:28:18;5.22;;;2.00;;
75220;SDS011;63802;53.232;6.570;2023-04-24T14:30:45;11.30;;;2.50;;
75220;SDS011;63802;53.232;6.570;2023-04-24T14:33:11;6.20;;;1.88;;
75220;SDS011;63802;53.232;6.570;2023-04-24T14:35:37;8.35;;;2.20;;
75220;SDS011;63802;53.232;6.570;2023-04-24T14:38:03;8.35;;;2.10;;
75220;SDS011;63802;53.232;6.570;2023-04-24T14:40:29;8.15;;;1.90;;
75220;SDS011;63802;53.232;6.570;2023-04-24T14:42:56;9.73;;;2.05;;
75220;SDS011;63802;53.232;6.570;2023-04-24T14:45:23;7.05;;;2.20;;
75220;SDS011;63802;53.232;6.570;2023-04-24T14:47:48;5.00;;;2.00;;
75220;SDS011;63802;53.232;6.570;2023-04-24T14:50:14;11.13;;;2.00;;
75220;SDS011;63802;53.232;6.570;2023-04-24T14:52:39;5.45;;;1.98;;
75220;SDS011;63802;53.232;6.570;2023-04-24T14:55:05;12.57;;;2.13;;
75220;SDS011;63802;53.232;6.570;2023-04-24T14:57:31;9.70;;;2.20;;
75220;SDS011;63802;53.232;6.570;2023-04-24T14:59:57;4.57;;;2.08;;
75220;SDS011;63802;53.232;6.570;2023-04-24T15:02:23;4.40;;;2.15;;
75220;SDS011;63802;53.232;6.570;2023-04-24T15:04:48;9.75;;;2.40;;
75220;SDS011;63802;53.232;6.570;2023-04-24T15:07:13;8.50;;;2.70;;